Time;durP1;ratioP1;P1;durP2;ratioP2;P2;SDS_P1;SDS_P2;PMS_P1;PMS_P2;Temp;Humidity;BMP_temperature;BMP_pressure;BME280_temperature;BME280_humidity;BME280_pressure;Samples;Min_cycle;Max_cycle;Signal;HPM_P1;HPM_P2
2021/10/07 00:02:08;;;;;;;58.00;29.88;;;;;;;11.20;97.27;102038.16;5015046;28;20049;-80
2021/10/07 00:04:34;;;;;;;61.22;30.92;;;;;;;11.25;96.67;102037.78;5016111;28;20022;-76
2021/10/07 00:06:59;;;;;;;68.65;32.30;;;;;;;11.29;96.48;102046.94;5008821;28;20041;-78
2021/10/07 00:09:25;;;;;;;58.88;30.35;;;;;;;11.25;96.53;102045.56;5020468;28;20045;-80
2021/10/07 00:11:51;;;;;;;53.13;27.95;;;;;;;11.20;96.83;102048.53;5018012;28;20034;-76
2021/10/07 00:14:18;;;;;;;65.40;30.73;;;;;;;11.24;96.65;102046.50;5014249;28;20273;-76
2021/10/07 00:16:43;;;;;;;61.63;28.83;;;;;;;11.23;96.87;102053.47;5009827;28;20058;-78
2021/10/07 00:19:09;;;;;;;64.95;30.60;;;;;;;11.23;97.09;102048.28;5015407;28;20065;-85
2021/10/07 00:21:36;;;;;;;60.05;29.50;;;;;;;11.23;96.99;102052.66;5018425;28;20061;-77
2021/10/07 00:24:08;;;;;;;73.43;32.72;;;;;;;11.27;97.03;102054.06;5003881;28;20045;-83
2021/10/07 00:26:36;;;;;;;64.00;30.92;;;;;;;11.29;96.93;102050.34;4997937;28;20034;-77
2021/10/07 00:29:15;;;;;;;64.30;31.77;;;;;;;11.29;96.75;102058.16;5019483;28;20402;-79
2021/10/07 00:31:43;;;;;;;71.80;35.42;;;;;;;11.35;96.61;102056.00;5013280;28;20025;-79
2021/10/07 00:34:27;;;;;;;71.22;35.45;;;;;;;11.34;96.70;102062.13;4991970;28;20099;-77
2021/10/07 00:39:25;;;;;;;82.85;39.28;;;;;;;11.28;96.73;102063.47;5010397;28;20044;-76
2021/10/07 00:41:52;;;;;;;90.65;40.92;;;;;;;11.28;96.82;102072.09;5022285;28;20037;-78
2021/10/07 00:44:18;;;;;;;69.75;33.10;;;;;;;11.32;96.81;102067.47;5008115;28;20041;-77
2021/10/07 00:46:53;;;;;;;67.50;29.88;;;;;;;11.32;96.61;102066.63;5015592;28;20527;-76
2021/10/07 00:49:20;;;;;;;64.65;29.80;;;;;;;11.41;96.29;102071.84;5010699;28;20065;-78
2021/10/07 00:51:46;;;;;;;62.08;29.63;;;;;;;11.36;96.37;102075.81;5013334;28;20055;-79
2021/10/07 00:54:13;;;;;;;59.38;29.23;;;;;;;11.35;96.37;102077.59;5007176;28;20387;-80
2021/10/07 00:56:41;;;;;;;49.55;25.70;;;;;;;11.37;96.31;102080.88;5014713;28;20046;-77
2021/10/07 00:59:07;;;;;;;57.85;27.98;;;;;;;11.29;96.73;102078.91;4996473;28;20030;-78
2021/10/07 01:01:32;;;;;;;71.40;29.50;;;;;;;11.35;96.94;102084.56;5012563;28;20634;-78
2021/10/07 01:03:58;;;;;;;67.90;29.40;;;;;;;11.34;96.77;102083.75;5013642;28;20033;-82
2021/10/07 01:06:23;;;;;;;65.22;28.42;;;;;;;11.32;97.01;102082.22;5015964;28;20030;-77
2021/10/07 01:08:58;;;;;;;62.88;28.95;;;;;;;11.33;96.71;102086.47;5008511;28;20030;-82
2021/10/07 01:11:24;;;;;;;61.83;28.33;;;;;;;11.32;97.05;102088.25;5009960;28;20030;-76
2021/10/07 01:13:49;;;;;;;62.30;27.80;;;;;;;11.34;96.94;102095.88;5008530;28;20076;-79
2021/10/07 01:16:17;;;;;;;66.75;29.33;;;;;;;11.35;96.74;102092.34;5012692;28;20510;-78
2021/10/07 01:18:46;;;;;;;58.03;28.00;;;;;;;11.32;97.17;102092.59;5015627;28;20038;-77
2021/10/07 01:21:13;;;;;;;62.22;27.08;;;;;;;11.33;97.17;102102.84;4997564;28;20398;-76
2021/10/07 01:23:41;;;;;;;71.78;29.48;;;;;;;11.35;96.98;102103.56;4991779;28;20500;-77
2021/10/07 01:26:08;;;;;;;62.22;27.88;;;;;;;11.35;96.96;102095.75;5017895;28;20087;-77
2021/10/07 01:28:36;;;;;;;77.38;28.50;;;;;;;11.39;96.97;102093.72;5014138;28;20547;-81
2021/10/07 01:31:04;;;;;;;71.00;26.75;;;;;;;11.36;96.62;102100.03;5000857;28;20354;-77
2021/10/07 01:33:29;;;;;;;72.53;29.35;;;;;;;11.38;96.70;102100.72;5014384;28;20054;-77
2021/10/07 01:35:55;;;;;;;72.68;28.13;;;;;;;11.46;96.71;102100.88;5019651;28;20128;-78
2021/10/07 01:38:20;;;;;;;79.32;29.10;;;;;;;11.44;96.50;102107.97;5010896;28;20490;-81
2021/10/07 01:40:46;;;;;;;75.50;29.08;;;;;;;11.44;96.41;102110.56;5007355;28;20038;-78
2021/10/07 01:43:11;;;;;;;71.38;28.15;;;;;;;11.38;96.31;102105.09;5014376;28;20033;-79
2021/10/07 01:45:36;;;;;;;69.20;28.35;;;;;;;11.36;96.78;102104.38;4995655;28;20049;-83
2021/10/07 01:48:04;;;;;;;65.00;26.88;;;;;;;11.39;96.51;102106.72;5016536;28;20137;-77
2021/10/07 01:50:30;;;;;;;70.63;27.17;;;;;;;11.35;96.92;102111.34;5013534;28;20041;-77
2021/10/07 01:52:55;;;;;;;68.15;27.83;;;;;;;11.35;96.87;102107.94;4999538;28;20045;-77
2021/10/07 01:55:21;;;;;;;69.70;26.27;;;;;;;11.32;96.92;102113.38;5007682;28;20034;-77
2021/10/07 01:57:46;;;;;;;83.35;28.90;;;;;;;11.33;97.21;102115.03;4996845;28;20420;-77
2021/10/07 02:00:12;;;;;;;70.95;26.83;;;;;;;11.30;97.46;102116.94;5010477;28;20046;-77
2021/10/07 02:02:38;;;;;;;80.53;28.20;;;;;;;11.33;97.42;102120.22;5011264;28;20076;-77
2021/10/07 02:05:05;;;;;;;69.38;25.27;;;;;;;11.30;97.46;102121.28;5006313;28;20041;-77
2021/10/07 02:07:30;;;;;;;84.78;27.88;;;;;;;11.30;97.46;102118.69;5005658;28;20080;-77
2021/10/07 02:09:56;;;;;;;88.55;30.80;;;;;;;11.37;97.60;102119.00;5020501;28;20030;-79
2021/10/07 02:12:22;;;;;;;74.32;26.45;;;;;;;11.33;97.25;102126.22;5016130;28;20041;-79
2021/10/07 02:14:47;;;;;;;73.93;26.90;;;;;;;11.28;97.32;102126.63;4991405;28;20072;-77
2021/10/07 02:17:12;;;;;;;72.45;26.70;;;;;;;11.29;97.75;102124.84;5008957;28;20555;-77
2021/10/07 02:19:38;;;;;;;67.22;25.42;;;;;;;11.30;97.72;102129.06;5006433;28;20033;-79
2021/10/07 02:22:04;;;;;;;84.78;28.05;;;;;;;11.30;97.64;102127.31;5027907;28;20038;-82
2021/10/07 02:24:30;;;;;;;79.00;28.35;;;;;;;11.30;97.77;102129.06;4995195;28;20379;-79
2021/10/07 02:26:55;;;;;;;82.95;29.92;;;;;;;11.35;97.37;102129.53;5008092;28;20038;-78
2021/10/07 02:29:21;;;;;;;82.60;27.05;;;;;;;11.35;97.61;102132.13;5016775;28;20017;-77
2021/10/07 02:31:46;;;;;;;77.22;26.90;;;;;;;11.31;97.44;102133.34;5011540;28;20022;-77
2021/10/07 02:34:12;;;;;;;86.18;31.15;;;;;;;11.30;97.66;102132.50;5014102;28;20072;-77
2021/10/07 02:36:37;;;;;;;79.80;27.42;;;;;;;11.28;97.78;102136.16;5008813;28;20042;-80
2021/10/07 02:39:03;;;;;;;73.22;25.63;;;;;;;11.33;97.51;102136.63;5008071;28;20034;-78
2021/10/07 02:41:30;;;;;;;74.78;25.35;;;;;;;11.29;97.49;102135.22;5015042;28;20087;-77
2021/10/07 02:43:56;;;;;;;71.95;24.13;;;;;;;11.28;97.57;102146.56;4997669;28;20034;-79
2021/10/07 02:46:23;;;;;;;71.97;24.35;;;;;;;11.30;97.83;102142.91;4990315;28;20025;-77
2021/10/07 02:48:48;;;;;;;65.13;23.67;;;;;;;11.29;97.92;102145.63;5011644;28;20410;-79
2021/10/07 02:51:14;;;;;;;65.97;25.25;;;;;;;11.29;97.49;102143.03;5013973;28;20021;-80
2021/10/07 02:53:39;;;;;;;75.85;23.92;;;;;;;11.38;97.60;102137.06;5008509;28;20116;-78
2021/10/07 02:56:06;;;;;;;72.88;26.20;;;;;;;11.32;97.39;102147.97;5015490;28;20033;-77
2021/10/07 02:58:33;;;;;;;73.43;24.08;;;;;;;11.30;97.62;102147.25;5016297;28;20069;-80
2021/10/07 03:00:58;;;;;;;73.53;24.10;;;;;;;11.33;97.39;102152.19;5012382;28;20509;-77
2021/10/07 03:03:24;;;;;;;68.88;24.48;;;;;;;11.32;97.28;102160.13;5010072;28;20037;-80
2021/10/07 03:05:49;;;;;;;73.65;25.02;;;;;;;11.32;97.51;102162.72;5011174;28;20021;-77
2021/10/07 03:08:15;;;;;;;71.68;23.27;;;;;;;11.30;97.53;102168.88;5010396;28;20462;-78
2021/10/07 03:10:40;;;;;;;83.43;24.83;;;;;;;11.34;97.51;102168.59;5018277;28;20335;-77
2021/10/07 03:13:06;;;;;;;76.18;25.40;;;;;;;11.35;97.48;102167.66;5007432;28;20112;-77
2021/10/07 03:15:31;;;;;;;74.60;25.13;;;;;;;11.33;97.43;102178.16;5005321;28;20024;-78
2021/10/07 03:17:59;;;;;;;69.00;22.83;;;;;;;11.34;97.45;102173.78;5015247;28;20449;-82
2021/10/07 03:20:24;;;;;;;64.78;21.77;;;;;;;11.32;97.38;102175.69;5021024;28;20022;-77
2021/10/07 03:22:49;;;;;;;67.82;22.88;;;;;;;11.30;97.45;102174.06;5012202;28;20483;-77
2021/10/07 03:25:15;;;;;;;67.85;21.83;;;;;;;11.30;97.63;102179.25;5016993;28;20021;-78
2021/10/07 03:27:40;;;;;;;66.20;21.77;;;;;;;11.29;97.49;102176.78;5013669;28;20391;-78
2021/10/07 03:30:07;;;;;;;66.60;24.00;;;;;;;11.30;97.66;102179.25;5000555;28;20029;-77
2021/10/07 03:32:35;;;;;;;66.38;24.48;;;;;;;11.29;97.95;102180.19;5013014;28;20030;-78
2021/10/07 03:35:01;;;;;;;71.25;22.20;;;;;;;11.29;97.62;102185.38;5011601;28;20104;-81
2021/10/07 03:37:29;;;;;;;76.03;22.70;;;;;;;11.30;97.62;102187.03;5012864;28;20029;-78
2021/10/07 03:39:54;;;;;;;63.95;22.02;;;;;;;11.36;97.12;102196.09;5010979;28;20751;-78
2021/10/07 03:42:20;;;;;;;61.08;20.00;;;;;;;11.34;97.01;102202.34;5030540;28;20034;-78
2021/10/07 03:44:46;;;;;;;64.25;21.38;;;;;;;11.32;97.23;102204.25;5016381;28;20058;-78
2021/10/07 03:47:11;;;;;;;64.05;22.65;;;;;;;11.32;97.22;102202.50;5010471;28;20058;-81
2021/10/07 03:49:37;;;;;;;59.67;20.30;;;;;;;11.30;97.12;102200.03;5015654;28;20030;-79
2021/10/07 03:52:03;;;;;;;66.28;20.58;;;;;;;11.28;97.19;102203.69;5009475;28;20609;-81
2021/10/07 03:54:28;;;;;;;58.25;19.00;;;;;;;11.32;96.87;102201.66;5012274;28;20034;-78
2021/10/07 03:56:54;;;;;;;59.63;19.42;;;;;;;11.32;96.77;102209.44;5013190;28;20037;-80
2021/10/07 03:59:19;;;;;;;57.00;19.67;;;;;;;11.29;96.53;102213.13;5009794;28;20030;-78
2021/10/07 04:01:46;;;;;;;65.88;21.00;;;;;;;11.30;96.63;102214.75;5013916;28;20041;-79
2021/10/07 04:04:12;;;;;;;52.80;18.23;;;;;;;11.28;96.67;102221.88;5015517;28;20124;-78
2021/10/07 04:06:37;;;;;;;62.13;20.95;;;;;;;11.28;96.66;102230.50;5012625;28;20467;-79
2021/10/07 04:09:03;;;;;;;57.17;18.83;;;;;;;11.25;96.73;102228.13;5017020;28;20041;-78
2021/10/07 04:11:28;;;;;;;52.50;18.17;;;;;;;11.26;97.11;102228.97;5017146;28;20033;-79
2021/10/07 04:13:54;;;;;;;46.22;17.90;;;;;;;11.25;96.97;102230.72;5018323;28;20045;-77
2021/10/07 04:16:19;;;;;;;50.35;17.48;;;;;;;11.25;96.88;102232.50;5015294;28;20091;-79
2021/10/07 04:18:45;;;;;;;44.05;18.15;;;;;;;11.25;96.81;102241.13;5009951;28;20060;-79
2021/10/07 04:21:11;;;;;;;46.85;16.70;;;;;;;11.26;96.67;102249.72;5014145;28;20033;-77
2021/10/07 04:23:37;;;;;;;59.08;20.25;;;;;;;11.25;96.52;102251.50;5014624;28;20073;-78
2021/10/07 04:26:05;;;;;;;52.72;17.95;;;;;;;11.27;95.94;102257.41;5017445;28;20033;-81
2021/10/07 04:28:30;;;;;;;48.17;19.20;;;;;;;11.28;96.01;102247.81;5015246;28;20498;-77
2021/10/07 04:30:56;;;;;;;48.97;16.25;;;;;;;11.24;95.93;102256.81;5012447;28;20026;-77
2021/10/07 04:33:21;;;;;;;42.05;15.77;;;;;;;11.23;96.06;102252.59;4995832;28;20038;-78
2021/10/07 04:35:47;;;;;;;47.42;16.83;;;;;;;11.22;95.82;102253.53;5015723;28;20033;-77
2021/10/07 04:38:12;;;;;;;44.65;16.70;;;;;;;11.28;95.73;102258.22;5008543;28;20026;-77
2021/10/07 04:40:38;;;;;;;39.22;15.05;;;;;;;11.24;95.61;102256.81;5013875;28;20048;-77
2021/10/07 04:43:04;;;;;;;49.47;16.50;;;;;;;11.19;95.28;102261.56;5012741;28;20022;-78
2021/10/07 04:45:29;;;;;;;50.83;18.15;;;;;;;11.22;95.21;102269.09;5013815;28;20033;-79
2021/10/07 04:47:55;;;;;;;40.47;16.27;;;;;;;11.19;95.26;102272.78;4995190;28;20459;-77
2021/10/07 04:50:21;;;;;;;46.00;16.15;;;;;;;11.17;95.77;102266.91;5016038;28;20036;-77
2021/10/07 04:52:46;;;;;;;46.17;15.77;;;;;;;11.19;95.56;102266.75;5015883;28;20037;-78
2021/10/07 04:55:12;;;;;;;50.10;16.75;;;;;;;11.23;95.40;102265.56;5016802;28;20029;-81
2021/10/07 04:57:38;;;;;;;46.05;17.08;;;;;;;11.22;95.60;102269.09;5016429;28;20407;-77
2021/10/07 05:00:05;;;;;;;43.78;17.35;;;;;;;11.20;95.74;102274.41;5021850;28;20041;-79
2021/10/07 05:02:31;;;;;;;49.30;16.77;;;;;;;11.21;95.89;102283.06;4992085;28;20021;-77
2021/10/07 05:04:56;;;;;;;46.47;17.95;;;;;;;11.20;95.89;102282.22;5015217;28;20371;-79
2021/10/07 05:07:22;;;;;;;45.63;17.55;;;;;;;11.20;95.87;102281.38;5019703;28;20097;-78
2021/10/07 05:09:47;;;;;;;36.35;15.65;;;;;;;11.19;95.71;102284.91;5014750;28;20034;-77
2021/10/07 05:12:13;;;;;;;39.75;15.48;;;;;;;11.20;95.77;102284.00;5011810;28;20350;-78
2021/10/07 05:14:38;;;;;;;39.50;15.15;;;;;;;11.16;95.82;102286.00;5015611;28;20502;-78
2021/10/07 05:17:04;;;;;;;40.45;16.45;;;;;;;11.18;96.17;102280.69;5013117;28;20038;-77
2021/10/07 05:19:29;;;;;;;43.05;15.90;;;;;;;11.18;96.15;102298.88;5018501;28;20682;-78
2021/10/07 05:21:55;;;;;;;43.85;16.15;;;;;;;11.19;95.79;102295.31;5020590;28;20034;-79
2021/10/07 05:24:20;;;;;;;44.05;14.20;;;;;;;11.18;95.70;102291.91;5013454;28;20502;-77
2021/10/07 05:26:46;;;;;;;40.63;14.55;;;;;;;11.19;95.53;102305.69;5016301;28;20029;-80
2021/10/07 05:29:12;;;;;;;44.75;16.85;;;;;;;11.20;95.51;102297.78;5007426;28;20029;-77
2021/10/07 05:31:38;;;;;;;39.28;14.65;;;;;;;11.19;95.43;102303.94;5007628;28;20112;-78
2021/10/07 05:34:03;;;;;;;35.88;14.18;;;;;;;11.18;95.56;102310.06;4991157;28;20132;-78
2021/10/07 05:36:29;;;;;;;35.60;13.73;;;;;;;11.18;95.85;102304.88;5009576;28;20037;-77
2021/10/07 05:38:55;;;;;;;45.38;15.77;;;;;;;11.18;95.75;102311.84;4995696;28;20029;-77
2021/10/07 05:41:20;;;;;;;47.05;17.13;;;;;;;11.19;96.00;102316.06;5010342;28;20030;-77
2021/10/07 05:43:46;;;;;;;42.72;15.10;;;;;;;11.18;95.67;102315.25;5007766;28;20475;-78
2021/10/07 05:46:11;;;;;;;40.63;14.50;;;;;;;11.17;95.77;102313.63;4997255;28;20033;-79
2021/10/07 05:48:38;;;;;;;43.42;15.35;;;;;;;11.19;96.06;102318.66;4999076;28;20034;-78
2021/10/07 05:51:04;;;;;;;41.38;14.13;;;;;;;11.20;95.84;102315.97;5017193;28;20021;-78
2021/10/07 05:53:29;;;;;;;36.53;13.75;;;;;;;11.19;95.85;102329.06;5016764;28;20457;-77
2021/10/07 05:55:55;;;;;;;34.75;14.30;;;;;;;11.20;96.06;102330.72;5009512;28;20041;-78
2021/10/07 05:58:20;;;;;;;36.65;13.65;;;;;;;11.21;96.27;102334.97;5013427;28;20044;-77
2021/10/07 06:00:46;;;;;;;39.05;15.10;;;;;;;11.21;95.81;102335.81;4995055;28;20088;-78
2021/10/07 06:03:12;;;;;;;39.03;14.65;;;;;;;11.21;95.73;102338.41;5016948;28;20052;-77
2021/10/07 06:05:39;;;;;;;33.92;13.02;;;;;;;11.22;95.74;102345.22;5007971;28;20037;-77
2021/10/07 06:08:06;;;;;;;36.67;13.98;;;;;;;11.22;95.69;102347.81;5018783;28;20061;-77
2021/10/07 06:10:32;;;;;;;43.33;16.10;;;;;;;11.22;95.58;102344.41;5008264;28;20060;-78
2021/10/07 06:12:58;;;;;;;45.30;15.13;;;;;;;11.22;95.48;102347.00;5015438;28;20460;-79
2021/10/07 06:15:26;;;;;;;35.10;13.75;;;;;;;11.22;95.64;102347.00;5001072;28;20034;-78
2021/10/07 06:17:52;;;;;;;43.00;16.42;;;;;;;11.22;95.83;102352.19;5011416;28;20520;-78
2021/10/07 06:20:31;;;;;;;44.13;14.85;;;;;;;11.22;95.62;102354.78;5007946;28;20073;-77
2021/10/07 06:22:58;;;;;;;40.50;15.48;;;;;;;11.22;95.61;102359.97;5010104;28;20029;-78
2021/10/07 06:25:24;;;;;;;49.10;16.77;;;;;;;11.23;95.26;102357.28;5007333;28;20410;-77
2021/10/07 06:27:50;;;;;;;41.65;15.52;;;;;;;11.24;95.41;102352.91;5010629;28;20108;-77
2021/10/07 06:30:17;;;;;;;41.30;16.55;;;;;;;11.25;95.03;102368.34;5006954;28;20753;-77
2021/10/07 06:32:44;;;;;;;41.33;13.93;;;;;;;11.26;95.15;102361.38;5007031;28;20041;-78
2021/10/07 06:35:11;;;;;;;50.63;16.58;;;;;;;11.27;95.21;102369.06;5013746;28;20370;-77
2021/10/07 06:37:55;;;;;;;44.70;15.60;;;;;;;11.29;95.08;102363.75;5002192;28;20137;-77
2021/10/07 06:40:21;;;;;;;43.67;16.73;;;;;;;11.32;95.19;102368.72;5006295;28;20037;-77
2021/10/07 06:42:46;;;;;;;42.58;16.05;;;;;;;11.35;95.04;102378.00;5009620;28;20077;-79
2021/10/07 06:45:12;;;;;;;39.78;15.40;;;;;;;11.40;94.95;102373.28;5012131;28;20119;-79
2021/10/07 06:47:39;;;;;;;45.80;17.13;;;;;;;11.48;94.92;102370.88;5020334;28;20030;-77
2021/10/07 06:50:09;;;;;;;52.67;18.88;;;;;;;11.52;94.77;102377.47;5006793;28;20483;-78
2021/10/07 06:52:37;;;;;;;46.78;16.25;;;;;;;11.52;94.57;102376.66;5010834;28;20041;-78
2021/10/07 06:55:03;;;;;;;42.45;16.13;;;;;;;11.55;94.69;102379.03;5011166;28;20026;-79
2021/10/07 06:57:29;;;;;;;91.45;33.45;;;;;;;11.56;94.69;102386.66;5018202;28;20030;-78
2021/10/07 06:59:54;;;;;;;77.93;29.77;;;;;;;11.59;94.68;102383.84;4991442;28;20053;-80
2021/10/07 07:02:20;;;;;;;64.40;23.25;;;;;;;11.62;94.56;102393.13;5021067;28;20030;-77
2021/10/07 07:04:45;;;;;;;51.33;19.25;;;;;;;11.62;94.49;102390.53;5008907;28;20136;-77
2021/10/07 07:07:10;;;;;;;58.97;19.48;;;;;;;11.65;94.47;102391.13;5014681;28;20033;-78
2021/10/07 07:09:36;;;;;;;53.92;20.48;;;;;;;11.67;94.34;102402.22;5016050;28;20092;-78
2021/10/07 07:12:01;;;;;;;50.78;18.58;;;;;;;11.68;93.79;102395.25;5016643;28;20037;-78
2021/10/07 07:14:27;;;;;;;45.08;17.73;;;;;;;11.72;93.33;102407.06;5016487;28;20084;-78
2021/10/07 07:16:52;;;;;;;42.72;16.50;;;;;;;12.01;92.63;102403.88;5016274;28;20037;-77
2021/10/07 07:19:18;;;;;;;44.70;16.58;;;;;;;12.17;91.33;102412.06;5015764;28;20754;-77
2021/10/07 07:21:43;;;;;;;50.08;19.40;;;;;;;12.26;90.98;102413.06;5020752;28;20042;-77
2021/10/07 07:24:09;;;;;;;44.00;19.08;;;;;;;12.26;90.64;102410.47;4996241;28;20445;-77
2021/10/07 07:26:36;;;;;;;47.15;19.10;;;;;;;12.26;90.78;102410.47;5020440;28;20060;-77
2021/10/07 07:29:03;;;;;;;45.72;18.52;;;;;;;12.31;90.99;102417.88;5007647;28;20077;-77
2021/10/07 07:31:28;;;;;;;38.78;16.13;;;;;;;12.35;91.29;102419.28;5000060;28;20475;-77
2021/10/07 07:33:54;;;;;;;40.00;16.58;;;;;;;12.40;91.21;102415.34;5011102;28;20048;-77
2021/10/07 07:36:22;;;;;;;40.83;16.25;;;;;;;12.50;90.91;102414.56;5012683;28;20475;-77
2021/10/07 07:38:48;;;;;;;41.58;17.27;;;;;;;12.57;90.48;102410.50;5019792;28;20029;-77
2021/10/07 07:41:15;;;;;;;38.88;16.95;;;;;;;12.57;89.93;102424.34;5011977;28;20112;-77
2021/10/07 07:43:41;;;;;;;33.50;14.75;;;;;;;12.58;89.67;102420.78;5012769;28;20059;-77
2021/10/07 07:46:07;;;;;;;36.33;16.17;;;;;;;12.80;88.68;102424.97;5008786;28;20034;-77
2021/10/07 07:48:33;;;;;;;39.17;16.88;;;;;;;13.46;84.96;102431.47;5022598;28;20037;-77
2021/10/07 07:50:59;;;;;;;30.90;13.60;;;;;;;13.61;84.21;102422.31;5013757;28;20589;-77
2021/10/07 07:53:24;;;;;;;30.45;13.48;;;;;;;14.06;83.06;102425.31;5013600;28;20291;-77
2021/10/07 07:55:50;;;;;;;29.60;14.00;;;;;;;14.25;79.80;102434.91;5016052;28;20400;-76
2021/10/07 07:58:17;;;;;;;38.13;14.57;;;;;;;13.91;81.14;102436.16;5011299;28;20026;-77
2021/10/07 08:00:43;;;;;;;24.40;12.10;;;;;;;13.96;81.72;102438.38;5005276;28;20726;-76
2021/10/07 08:03:08;;;;;;;30.45;13.02;;;;;;;14.46;78.67;102438.13;5014685;28;20030;-76
2021/10/07 08:05:34;;;;;;;25.58;11.82;;;;;;;14.87;77.55;102432.66;5023397;28;20473;-77
2021/10/07 08:08:00;;;;;;;30.30;12.38;;;;;;;15.21;76.29;102438.13;5015586;28;20088;-76
2021/10/07 08:10:25;;;;;;;24.75;12.13;;;;;;;16.03;73.30;102430.22;5014269;28;20100;-77
2021/10/07 08:12:51;;;;;;;25.15;11.02;;;;;;;16.21;72.00;102433.63;4994266;28;20037;-77
2021/10/07 08:15:17;;;;;;;24.17;10.15;;;;;;;16.21;72.30;102430.19;5014377;28;20442;-77
2021/10/07 08:17:42;;;;;;;19.27;10.45;;;;;;;15.94;72.25;102432.78;5008140;28;20042;-77
2021/10/07 08:20:10;;;;;;;25.40;10.80;;;;;;;15.44;73.55;102435.91;5007401;28;20517;-77
2021/10/07 08:22:36;;;;;;;27.42;11.77;;;;;;;15.60;74.74;102439.66;5014515;28;20029;-76
2021/10/07 08:25:02;;;;;;;22.65;9.90;;;;;;;16.57;71.71;102433.50;5014091;28;20035;-77
2021/10/07 08:27:28;;;;;;;19.98;10.90;;;;;;;17.25;68.04;102423.94;5000758;28;20067;-76
2021/10/07 08:29:55;;;;;;;23.42;9.48;;;;;;;17.88;65.31;102433.06;5003111;28;20029;-77
2021/10/07 08:32:21;;;;;;;18.50;9.38;;;;;;;18.35;62.77;102424.44;5009805;28;20037;-78
2021/10/07 08:34:47;;;;;;;25.42;9.45;;;;;;;18.60;62.22;102429.63;5032920;28;20052;-76
2021/10/07 08:37:12;;;;;;;17.48;8.93;;;;;;;18.74;60.74;102435.97;4996938;28;20033;-77
2021/10/07 08:39:38;;;;;;;17.88;8.00;;;;;;;18.80;61.27;102433.50;4991261;28;20470;-78
2021/10/07 08:42:04;;;;;;;18.58;8.90;;;;;;;18.45;61.81;102438.19;5023785;28;20088;-78
2021/10/07 08:44:30;;;;;;;20.60;9.68;;;;;;;18.03;61.16;102444.50;5009326;28;20080;-77
2021/10/07 08:46:57;;;;;;;21.02;10.40;;;;;;;17.20;63.77;102462.94;5010592;28;20045;-76
2021/10/07 08:49:25;;;;;;;18.83;9.40;;;;;;;16.44;67.11;102454.84;5010348;28;20033;-78
2021/10/07 08:51:52;;;;;;;20.98;8.50;;;;;;;16.15;68.61;102458.59;5013582;28;20041;-77
2021/10/07 08:54:18;;;;;;;19.48;9.90;;;;;;;15.85;69.26;102461.63;5008021;28;20332;-78
2021/10/07 08:56:44;;;;;;;22.33;9.38;;;;;;;15.92;69.52;102463.50;5019371;28;20064;-77
2021/10/07 08:59:10;;;;;;;20.08;10.05;;;;;;;16.53;69.24;102458.34;5009657;28;20057;-77
2021/10/07 09:01:38;;;;;;;14.77;8.07;;;;;;;16.39;68.73;102462.38;5021234;28;20053;-78
2021/10/07 09:04:28;;;;;;;23.55;9.23;;;;;;;15.90;70.31;102459.41;5008817;28;20077;-77
2021/10/07 09:07:08;;;;;;;13.70;7.85;;;;;;;15.64;70.89;102467.16;5003212;28;20053;-77
2021/10/07 09:09:37;;;;;;;16.88;7.70;;;;;;;15.71;70.70;102474.25;5009998;28;20128;-76
2021/10/07 09:12:06;;;;;;;20.83;9.32;;;;;;;15.99;71.33;102468.94;5011944;28;20399;-76
2021/10/07 09:14:34;;;;;;;18.00;8.27;;;;;;;15.90;69.77;102472.47;5012046;28;20793;-76
2021/10/07 09:17:01;;;;;;;18.60;8.35;;;;;;;15.61;70.23;102467.44;5010183;28;20041;-78
2021/10/07 09:19:32;;;;;;;14.55;6.60;;;;;;;15.32;71.75;102473.69;5010650;28;20033;-77
2021/10/07 09:22:19;;;;;;;10.20;5.95;;;;;;;15.29;71.09;102468.72;5013637;28;20037;-79
2021/10/07 09:24:47;;;;;;;16.95;8.73;;;;;;;15.43;71.35;102470.84;5001684;28;20041;-76
2021/10/07 09:27:27;;;;;;;13.90;7.13;;;;;;;15.75;69.51;102469.56;5012726;28;20046;-77
2021/10/07 09:30:01;;;;;;;15.57;7.15;;;;;;;15.89;67.65;102466.41;5003383;28;20581;-76
2021/10/07 09:32:29;;;;;;;18.63;8.10;;;;;;;16.13;66.78;102467.59;5008151;28;20037;-76
2021/10/07 09:34:56;;;;;;;15.75;7.53;;;;;;;16.33;66.41;102461.19;5013266;28;20048;-76
2021/10/07 09:37:35;;;;;;;19.17;8.18;;;;;;;16.42;65.53;102464.66;5015615;28;20026;-76
2021/10/07 09:40:13;;;;;;;16.45;8.27;;;;;;;16.68;65.79;102458.59;5009953;28;20038;-76
2021/10/07 09:42:41;;;;;;;12.82;6.70;;;;;;;16.42;62.30;102462.03;5010567;28;20125;-76
2021/10/07 09:45:13;;;;;;;13.30;6.90;;;;;;;16.45;64.34;102466.97;5007697;28;20038;-75
2021/10/07 09:47:41;;;;;;;10.82;6.30;;;;;;;16.50;65.07;102463.88;5010901;28;20125;-76
2021/10/07 09:50:23;;;;;;;14.68;7.15;;;;;;;16.52;65.12;102469.81;5010803;28;20469;-76
2021/10/07 09:52:57;;;;;;;16.80;7.07;;;;;;;16.62;63.18;102467.91;5003249;28;20057;-76
2021/10/07 09:55:25;;;;;;;14.85;7.32;;;;;;;16.48;64.41;102471.06;5004251;28;20110;-75
2021/10/07 09:57:52;;;;;;;12.63;6.85;;;;;;;16.46;63.61;102471.25;5014022;28;20025;-76
2021/10/07 10:00:18;;;;;;;11.75;6.10;;;;;;;16.46;63.60;102473.88;5003676;28;20570;-76
2021/10/07 10:02:44;;;;;;;15.30;8.48;;;;;;;16.36;64.36;102475.75;5000975;28;20047;-77
2021/10/07 10:05:11;;;;;;;13.82;6.00;;;;;;;16.58;64.08;102471.81;5007549;28;20037;-76
2021/10/07 10:07:37;;;;;;;10.57;5.95;;;;;;;16.52;61.63;102477.66;5003546;28;20582;-77
2021/10/07 10:10:07;;;;;;;21.80;7.30;;;;;;;16.58;62.06;102482.28;5013178;28;20125;-76
2021/10/07 10:12:33;;;;;;;17.25;7.47;;;;;;;16.32;64.07;102483.09;5009112;28;20026;-76
2021/10/07 10:15:01;;;;;;;12.38;6.18;;;;;;;16.37;64.01;102482.66;5005415;28;20117;-77
2021/10/07 10:17:27;;;;;;;16.58;7.68;;;;;;;16.21;63.41;102490.38;5012539;28;20041;-77
2021/10/07 10:19:55;;;;;;;13.75;6.93;;;;;;;16.03;65.04;102490.38;5012199;28;20029;-76
2021/10/07 10:22:22;;;;;;;12.65;7.68;;;;;;;15.90;64.06;102489.00;5009752;28;20112;-76
2021/10/07 10:24:48;;;;;;;13.00;8.27;;;;;;;15.89;65.24;102489.94;5012260;28;20037;-76
2021/10/07 10:27:14;;;;;;;15.52;7.20;;;;;;;16.06;64.66;102490.91;5013303;28;20041;-76
2021/10/07 10:29:39;;;;;;;21.77;7.28;;;;;;;15.96;65.26;102491.00;5012081;28;20048;-77
2021/10/07 10:32:07;;;;;;;19.23;9.75;;;;;;;16.06;63.82;102493.53;5008124;28;20065;-76
2021/10/07 10:34:42;;;;;;;17.95;9.10;;;;;;;16.08;65.17;102493.38;5004038;28;20502;-77
2021/10/07 10:37:09;;;;;;;16.58;9.07;;;;;;;16.17;64.08;102495.09;5007434;28;20589;-75
2021/10/07 10:39:39;;;;;;;17.40;8.52;;;;;;;16.19;63.63;102494.94;5007733;28;20121;-76
2021/10/07 10:42:06;;;;;;;17.10;9.90;;;;;;;16.05;64.64;102494.50;5009652;28;20041;-76
2021/10/07 10:45:03;;;;;;;21.33;9.35;;;;;;;16.02;64.59;102502.66;5011510;28;20117;-76
2021/10/07 10:47:40;;;;;;;14.90;8.23;;;;;;;16.05;65.29;102499.75;5010161;28;20053;-77
2021/10/07 10:50:12;;;;;;;14.18;7.97;;;;;;;16.07;65.16;102503.03;5014656;28;20037;-77
2021/10/07 10:52:56;;;;;;;11.52;7.35;;;;;;;16.11;65.38;102506.97;5006371;28;20034;-76
2021/10/07 10:55:24;;;;;;;19.75;9.95;;;;;;;16.22;62.01;102503.31;5014292;28;20057;-76
2021/10/07 10:58:04;;;;;;;22.20;12.57;;;;;;;16.34;62.30;102509.13;5022185;28;20026;-76
2021/10/07 11:00:41;;;;;;;20.23;12.05;;;;;;;16.14;62.95;102500.63;5010331;28;20406;-76
2021/10/07 11:03:20;;;;;;;18.38;10.32;;;;;;;15.95;64.16;102509.44;5012067;28;20394;-76
2021/10/07 11:06:01;;;;;;;17.98;9.43;;;;;;;15.91;64.31;102502.88;5009540;28;20038;-76
2021/10/07 11:08:28;;;;;;;17.13;8.75;;;;;;;15.89;64.80;102500.41;5012490;28;20033;-76
2021/10/07 11:10:58;;;;;;;12.80;7.88;;;;;;;15.93;64.42;102503.56;5014168;28;20132;-76
2021/10/07 11:13:29;;;;;;;14.38;6.85;;;;;;;15.99;61.98;102507.34;5015304;28;20037;-76
2021/10/07 11:16:00;;;;;;;11.82;5.22;;;;;;;15.93;61.38;102506.16;5012129;28;20798;-76